Time;durP1;ratioP1;P1;durP2;ratioP2;P2;SDS_P1;SDS_P2;PMS_P1;PMS_P2;Temp;Humidity;BMP_temperature;BMP_pressure;BME280_temperature;BME280_humidity;BME280_pressure;Samples;Min_cycle;Max_cycle;Signal;HPM_P1;HPM_P2
2021/07/07 00:01:03;;;;;;;3.05;1.15;;;17.20;73.90;;;;;;5072760;28;20069;-91
2021/07/07 00:03:29;;;;;;;2.15;1.00;;;17.20;73.90;;;;;;5071154;28;20029;-92
2021/07/07 00:05:55;;;;;;;2.75;0.90;;;17.20;73.90;;;;;;5071389;28;20031;-90
2021/07/07 00:08:21;;;;;;;2.60;1.20;;;17.20;73.80;;;;;;5071709;28;20028;-90
2021/07/07 00:10:46;;;;;;;4.07;1.40;;;17.20;73.70;;;;;;5072363;28;20031;-91
2021/07/07 00:13:13;;;;;;;2.58;1.17;;;17.20;73.80;;;;;;5071757;28;20044;-90
2021/07/07 00:15:39;;;;;;;1.73;0.95;;;17.20;73.80;;;;;;5072645;28;20086;-90
2021/07/07 00:18:08;;;;;;;3.45;1.10;;;17.20;73.80;;;;;;5072156;28;20017;-90
2021/07/07 00:20:44;;;;;;;2.20;1.50;;;17.20;73.70;;;;;;5071058;28;20032;-91
2021/07/07 00:23:11;;;;;;;2.80;1.33;;;17.20;73.90;;;;;;5069465;28;20544;-90
2021/07/07 00:25:37;;;;;;;3.47;1.25;;;17.10;74.00;;;;;;5071865;28;20442;-88
2021/07/07 00:28:03;;;;;;;3.75;1.00;;;17.00;74.20;;;;;;5074271;28;20070;-87
2021/07/07 00:30:29;;;;;;;2.53;1.13;;;17.00;74.20;;;;;;5074839;28;20080;-90
2021/07/07 00:32:56;;;;;;;2.47;1.30;;;17.00;74.20;;;;;;5074138;28;20017;-91
2021/07/07 00:35:22;;;;;;;1.95;0.95;;;17.00;74.10;;;;;;5075796;28;20024;-91
2021/07/07 00:37:48;;;;;;;1.75;1.00;;;17.00;74.20;;;;;;5075832;28;20063;-91
2021/07/07 00:40:14;;;;;;;1.33;0.90;;;17.00;74.20;;;;;;5075917;28;20024;-92
2021/07/07 00:42:40;;;;;;;1.27;0.80;;;17.00;74.10;;;;;;5075592;28;20035;-92
2021/07/07 00:45:06;;;;;;;1.75;0.95;;;17.00;74.00;;;;;;5075795;28;20047;-92
2021/07/07 00:47:32;;;;;;;2.92;1.05;;;17.00;74.00;;;;;;5075515;28;20059;-92
2021/07/07 00:49:57;;;;;;;2.15;0.95;;;17.00;74.10;;;;;;5074514;28;20017;-93
2021/07/07 00:52:23;;;;;;;0.90;0.80;;;17.00;74.00;;;;;;5074226;28;20029;-93
2021/07/07 00:54:55;;;;;;;2.60;0.70;;;17.00;74.00;;;;;;5074237;28;20078;-94
2021/07/07 00:57:24;;;;;;;1.65;0.88;;;17.00;73.90;;;;;;5076327;28;20029;-93
2021/07/07 00:59:54;;;;;;;1.60;0.73;;;17.00;73.80;;;;;;5073942;28;20046;-94
2021/07/07 01:02:24;;;;;;;2.88;1.20;;;17.00;73.80;;;;;;5075013;28;20028;-93
2021/07/07 01:04:50;;;;;;;1.05;0.90;;;17.00;73.90;;;;;;5075678;28;20044;-93
2021/07/07 01:07:15;;;;;;;2.95;1.13;;;16.90;74.00;;;;;;5075476;28;20039;-93
2021/07/07 01:09:41;;;;;;;1.85;0.90;;;16.90;74.20;;;;;;5074205;28;20016;-93
2021/07/07 01:12:07;;;;;;;1.10;0.70;;;16.80;74.20;;;;;;5074905;28;20088;-93
2021/07/07 01:14:35;;;;;;;1.25;0.80;;;16.80;74.10;;;;;;5075499;28;20017;-92
2021/07/07 01:17:01;;;;;;;1.75;0.85;;;16.80;74.10;;;;;;5075720;28;20056;-93
2021/07/07 01:19:27;;;;;;;1.15;0.80;;;16.80;74.10;;;;;;5076083;28;20029;-93
2021/07/07 01:21:53;;;;;;;1.30;0.75;;;16.80;74.10;;;;;;5074964;28;20032;-93
2021/07/07 01:24:20;;;;;;;1.58;0.82;;;16.80;74.10;;;;;;5074363;28;20468;-94
2021/07/07 01:26:47;;;;;;;1.98;0.90;;;16.80;74.10;;;;;;5080780;28;20084;-94
2021/07/07 01:29:16;;;;;;;2.15;0.70;;;16.80;74.10;;;;;;5082994;28;20033;-94
2021/07/07 01:31:45;;;;;;;1.58;0.80;;;16.80;74.10;;;;;;5083754;28;20499;-94
2021/07/07 01:34:11;;;;;;;2.95;0.80;;;16.80;74.20;;;;;;5082330;28;20040;-91
2021/07/07 01:36:37;;;;;;;3.03;1.08;;;16.70;74.20;;;;;;5078594;28;20051;-94
2021/07/07 01:39:05;;;;;;;1.13;0.68;;;16.70;74.20;;;;;;5077857;28;20115;-92
2021/07/07 01:41:31;;;;;;;1.92;0.82;;;16.70;74.10;;;;;;5077519;28;20024;-93
2021/07/07 01:43:57;;;;;;;1.48;1.05;;;16.70;74.20;;;;;;5073807;28;20082;-92
2021/07/07 01:46:23;;;;;;;1.67;0.90;;;16.60;74.20;;;;;;5073718;28;20494;-93
2021/07/07 01:48:51;;;;;;;1.02;0.70;;;16.60;74.20;;;;;;5074463;28;20031;-92
2021/07/07 01:51:17;;;;;;;1.17;0.73;;;16.60;74.20;;;;;;5074515;28;20033;-91
2021/07/07 01:53:44;;;;;;;0.88;0.82;;;16.60;74.30;;;;;;5074257;28;20111;-92
2021/07/07 01:56:09;;;;;;;2.63;1.20;;;16.60;74.30;;;;;;5073332;28;20028;-91
2021/07/07 01:58:35;;;;;;;2.45;1.20;;;16.50;74.30;;;;;;5072793;28;20032;-92
2021/07/07 02:01:02;;;;;;;2.50;1.10;;;16.50;74.40;;;;;;5073045;28;20024;-92
2021/07/07 02:03:28;;;;;;;1.05;0.95;;;16.40;74.60;;;;;;5072505;28;20020;-91
2021/07/07 02:05:53;;;;;;;2.40;1.02;;;16.40;74.80;;;;;;5074105;28;20031;-92
2021/07/07 02:08:19;;;;;;;1.77;1.20;;;16.40;74.90;;;;;;5074312;28;20025;-93
2021/07/07 02:10:47;;;;;;;2.70;1.15;;;16.40;75.10;;;;;;5074007;28;20020;-92
2021/07/07 02:13:13;;;;;;;2.65;1.27;;;16.30;75.00;;;;;;5073885;28;20025;-90
2021/07/07 02:15:40;;;;;;;1.58;1.10;;;16.30;75.30;;;;;;5074248;28;20020;-93
2021/07/07 02:18:07;;;;;;;1.35;1.00;;;16.30;75.30;;;;;;5073930;28;20621;-92
2021/07/07 02:20:36;;;;;;;2.05;0.93;;;16.30;75.10;;;;;;5072992;28;20017;-92
2021/07/07 02:23:02;;;;;;;1.27;0.95;;;16.30;75.00;;;;;;5072270;28;20033;-91
2021/07/07 02:25:32;;;;;;;1.88;1.00;;;16.30;75.00;;;;;;5071259;28;20024;-91
2021/07/07 02:27:58;;;;;;;1.48;0.98;;;16.30;75.00;;;;;;5073435;28;20038;-92
2021/07/07 02:30:34;;;;;;;1.77;0.95;;;16.40;75.00;;;;;;5073751;28;20020;-92
2021/07/07 02:33:01;;;;;;;1.58;0.93;;;16.40;75.00;;;;;;5072465;28;20094;-92
2021/07/07 02:35:30;;;;;;;1.38;0.80;;;16.30;75.00;;;;;;5072578;28;20032;-91
2021/07/07 02:37:57;;;;;;;1.15;1.05;;;16.30;75.00;;;;;;5072748;28;20608;-92
2021/07/07 02:40:28;;;;;;;3.03;1.50;;;16.30;75.00;;;;;;5073522;28;20040;-92
2021/07/07 02:42:58;;;;;;;1.17;1.00;;;16.30;75.20;;;;;;5073287;28;20493;-92
2021/07/07 02:45:26;;;;;;;2.55;1.35;;;16.30;75.30;;;;;;5073644;28;20032;-92
2021/07/07 02:47:55;;;;;;;3.50;1.60;;;16.20;75.60;;;;;;5072588;28;20028;-92
2021/07/07 02:50:21;;;;;;;5.25;2.30;;;16.10;75.80;;;;;;5073297;28;20020;-90
2021/07/07 02:52:49;;;;;;;2.13;1.38;;;16.10;76.30;;;;;;5072481;28;20028;-90
2021/07/07 02:55:17;;;;;;;2.05;1.52;;;16.10;76.30;;;;;;5072829;28;20414;-92
2021/07/07 03:00:47;;;;;;;2.28;1.92;;;16.00;76.60;;;;;;5073448;28;20127;-92
2021/07/07 03:03:17;;;;;;;2.10;1.67;;;16.00;77.00;;;;;;5072715;28;20028;-93
2021/07/07 03:06:02;;;;;;;2.83;1.60;;;15.90;77.00;;;;;;5072932;28;20029;-94
2021/07/07 03:08:30;;;;;;;3.17;1.83;;;15.90;77.20;;;;;;5073248;28;20467;-95
2021/07/07 03:10:56;;;;;;;2.25;1.80;;;15.90;77.40;;;;;;5072902;28;20020;-94
2021/07/07 03:13:23;;;;;;;2.40;1.48;;;15.90;77.50;;;;;;5072302;28;20103;-94
2021/07/07 03:15:58;;;;;;;3.45;1.27;;;15.90;77.40;;;;;;5070761;28;20070;-93
2021/07/07 03:18:24;;;;;;;1.55;1.20;;;15.90;77.30;;;;;;5086606;28;20028;-94
2021/07/07 03:20:51;;;;;;;2.30;1.33;;;16.00;77.10;;;;;;5073443;28;20031;-94
2021/07/07 03:23:18;;;;;;;2.67;1.40;;;16.00;77.10;;;;;;5077106;28;20100;-93
2021/07/07 03:25:45;;;;;;;2.03;1.40;;;16.10;77.00;;;;;;5082493;28;20422;-95
2021/07/07 03:28:10;;;;;;;2.50;1.60;;;16.10;77.00;;;;;;5084613;28;20462;-95
2021/07/07 03:30:36;;;;;;;1.73;1.30;;;16.10;76.90;;;;;;5092192;28;20030;-94
2021/07/07 03:33:03;;;;;;;2.63;1.60;;;16.10;76.80;;;;;;5082217;28;20082;-93
2021/07/07 03:35:30;;;;;;;2.03;1.30;;;16.20;76.80;;;;;;5078773;28;20016;-92
2021/07/07 03:37:56;;;;;;;2.30;1.48;;;16.20;76.70;;;;;;5081612;28;20020;-90
2021/07/07 03:40:22;;;;;;;2.08;1.30;;;16.20;76.60;;;;;;5085849;28;20028;-94
2021/07/07 03:42:48;;;;;;;1.42;1.30;;;16.20;77.50;;;;;;5073784;28;20021;-94
2021/07/07 03:45:16;;;;;;;1.23;0.98;;;16.10;76.90;;;;;;5092334;28;20023;-93
2021/07/07 03:47:42;;;;;;;1.83;1.33;;;16.10;77.00;;;;;;5082748;28;20337;-94
2021/07/07 03:50:09;;;;;;;2.00;1.40;;;16.10;77.00;;;;;;5072226;28;20028;-92
2021/07/07 03:52:36;;;;;;;2.95;1.73;;;16.10;77.00;;;;;;5087420;28;20054;-92
2021/07/07 03:55:09;;;;;;;2.00;1.50;;;16.10;77.20;;;;;;5074107;28;20028;-92
2021/07/07 03:57:35;;;;;;;2.88;1.80;;;16.10;77.20;;;;;;5084881;28;20016;-92
2021/07/07 04:00:01;;;;;;;3.10;2.00;;;16.10;77.50;;;;;;5077009;28;20506;-92
2021/07/07 04:02:26;;;;;;;1.90;1.58;;;16.10;77.50;;;;;;5074375;28;20013;-91
2021/07/07 04:04:52;;;;;;;3.53;1.88;;;16.10;77.60;;;;;;5078696;28;20559;-91
2021/07/07 04:07:18;;;;;;;3.42;1.60;;;16.20;77.50;;;;;;5091002;28;20035;-91
2021/07/07 04:09:43;;;;;;;4.35;1.95;;;16.20;77.30;;;;;;5075657;28;20021;-91
2021/07/07 04:12:09;;;;;;;5.03;1.92;;;16.20;77.30;;;;;;5087384;28;20085;-91
2021/07/07 04:14:34;;;;;;;3.60;1.70;;;16.20;77.40;;;;;;5078873;28;20016;-92
2021/07/07 04:17:00;;;;;;;4.13;2.50;;;16.20;77.40;;;;;;5095743;28;20024;-90
2021/07/07 04:19:27;;;;;;;4.97;2.20;;;16.20;77.50;;;;;;5090618;28;20086;-91
2021/07/07 04:21:53;;;;;;;4.75;1.85;;;16.20;77.50;;;;;;5084333;28;20364;-90
2021/07/07 04:24:20;;;;;;;2.85;1.90;;;16.20;77.50;;;;;;5080728;28;20021;-91
2021/07/07 04:26:46;;;;;;;3.95;1.85;;;16.20;77.50;;;;;;5091007;28;20016;-91
2021/07/07 04:29:12;;;;;;;2.50;2.00;;;16.20;77.40;;;;;;5075524;28;20025;-92
2021/07/07 04:31:39;;;;;;;3.65;2.00;;;16.30;77.40;;;;;;5081790;28;20027;-92
2021/07/07 04:34:05;;;;;;;2.75;1.88;;;16.30;77.30;;;;;;5082724;28;20020;-92
2021/07/07 04:36:31;;;;;;;4.38;1.70;;;16.30;77.30;;;;;;5090652;28;20580;-91
2021/07/07 04:38:57;;;;;;;2.35;1.77;;;16.30;77.90;;;;;;5074955;28;20111;-92
2021/07/07 04:41:23;;;;;;;4.47;1.70;;;16.30;77.30;;;;;;5079756;28;20157;-91
2021/07/07 04:43:48;;;;;;;2.78;1.90;;;16.40;77.20;;;;;;5095268;28;20020;-91
2021/07/07 04:46:14;;;;;;;3.70;1.60;;;16.40;77.00;;;;;;5094107;28;20054;-89
2021/07/07 04:48:40;;;;;;;3.97;2.22;;;16.50;76.80;;;;;;5095031;28;20446;-89
2021/07/07 04:51:06;;;;;;;2.88;1.58;;;16.60;76.70;;;;;;5094852;28;20024;-88
2021/07/07 04:53:31;;;;;;;2.17;1.45;;;16.60;76.60;;;;;;5071784;28;20111;-89
2021/07/07 04:55:57;;;;;;;2.20;1.40;;;16.70;76.50;;;;;;5073910;28;20017;-89
2021/07/07 04:58:25;;;;;;;3.25;1.90;;;16.80;76.30;;;;;;5074416;28;20024;-90
2021/07/07 05:00:52;;;;;;;2.92;1.80;;;17.10;76.00;;;;;;5072963;28;20103;-91
2021/07/07 05:03:18;;;;;;;2.63;2.00;;;17.60;75.00;;;;;;5069897;28;20017;-91
2021/07/07 05:05:44;;;;;;;2.42;1.50;;;18.10;73.50;;;;;;5054576;28;20021;-90
2021/07/07 05:08:09;;;;;;;3.42;1.77;;;18.30;72.20;;;;;;5054362;28;20025;-91
2021/07/07 05:10:35;;;;;;;2.55;1.80;;;18.10;72.40;;;;;;5072045;28;20120;-93
2021/07/07 05:13:06;;;;;;;2.13;1.58;;;17.80;73.00;;;;;;5073062;28;20021;-91
2021/07/07 05:15:33;;;;;;;2.37;1.70;;;17.70;73.70;;;;;;5074501;28;20021;-92
2021/07/07 05:18:00;;;;;;;4.75;1.88;;;17.60;74.00;;;;;;5081397;28;20035;-91
2021/07/07 05:20:26;;;;;;;1.85;1.20;;;17.50;74.50;;;;;;5057853;28;20047;-89
2021/07/07 05:22:52;;;;;;;3.22;1.83;;;17.40;74.60;;;;;;5075536;28;20016;-91
2021/07/07 05:25:19;;;;;;;2.05;1.70;;;17.40;74.80;;;;;;5076435;28;20028;-92
2021/07/07 05:27:46;;;;;;;4.18;1.60;;;17.40;74.90;;;;;;5073962;28;20028;-91
2021/07/07 05:30:14;;;;;;;2.90;1.95;;;17.40;75.00;;;;;;5076134;28;20088;-92
2021/07/07 05:32:41;;;;;;;3.50;2.05;;;17.30;75.00;;;;;;5072735;28;20016;-93
2021/07/07 05:35:09;;;;;;;2.08;1.70;;;17.30;75.10;;;;;;5073271;28;20028;-90
2021/07/07 05:37:35;;;;;;;2.65;1.70;;;17.30;75.30;;;;;;5073630;28;20019;-91
2021/07/07 05:40:03;;;;;;;2.85;1.63;;;17.30;75.20;;;;;;5072439;28;20040;-90
2021/07/07 05:42:29;;;;;;;5.43;2.53;;;17.40;75.20;;;;;;5069435;28;20095;-90
2021/07/07 05:44:55;;;;;;;4.68;2.50;;;17.40;75.30;;;;;;5056249;28;20033;-91
2021/07/07 05:47:24;;;;;;;4.10;2.00;;;17.20;75.50;;;;;;5055462;28;20071;-90
2021/07/07 05:49:55;;;;;;;2.42;1.70;;;17.30;75.40;;;;;;5069045;28;20028;-91
2021/07/07 05:52:21;;;;;;;3.38;1.73;;;17.30;75.50;;;;;;5076526;28;20024;-91
2021/07/07 05:54:47;;;;;;;2.88;1.67;;;17.40;75.40;;;;;;5077448;28;20375;-91
2021/07/07 05:57:15;;;;;;;4.13;1.83;;;17.50;75.20;;;;;;5075240;28;20031;-93
2021/07/07 05:59:41;;;;;;;4.03;2.08;;;17.50;75.10;;;;;;5078279;28;20386;-92
2021/07/07 06:02:07;;;;;;;4.38;1.75;;;17.60;75.10;;;;;;5075421;28;20029;-91
2021/07/07 06:04:33;;;;;;;2.45;1.70;;;17.60;75.00;;;;;;5077071;28;20021;-89
2021/07/07 06:06:58;;;;;;;3.75;2.03;;;17.70;74.90;;;;;;5077731;28;20375;-91
2021/07/07 06:09:24;;;;;;;4.28;2.20;;;17.60;74.90;;;;;;5065682;28;20038;-88
2021/07/07 06:11:50;;;;;;;6.43;2.42;;;17.60;75.10;;;;;;5078988;28;20051;-88
2021/07/07 06:14:16;;;;;;;5.60;2.70;;;17.60;75.20;;;;;;5061325;28;20112;-89
2021/07/07 06:16:42;;;;;;;5.95;2.85;;;17.50;75.40;;;;;;5068272;28;20051;-88
2021/07/07 06:19:08;;;;;;;4.47;1.90;;;17.50;75.50;;;;;;5070533;28;20025;-85
2021/07/07 06:21:34;;;;;;;4.95;2.50;;;17.50;75.60;;;;;;5073840;28;20386;-87
2021/07/07 06:24:00;;;;;;;5.80;2.72;;;17.50;75.60;;;;;;5079997;28;20073;-91
2021/07/07 06:26:30;;;;;;;6.18;2.58;;;17.50;75.70;;;;;;5068671;28;20028;-85
2021/07/07 06:28:56;;;;;;;4.95;2.30;;;17.50;75.60;;;;;;5074346;28;20095;-88
2021/07/07 06:31:22;;;;;;;3.53;1.80;;;17.50;75.60;;;;;;5074418;28;20032;-89
2021/07/07 06:33:48;;;;;;;4.90;2.40;;;17.70;75.50;;;;;;5076520;28;20479;-88
2021/07/07 06:36:14;;;;;;;5.32;2.40;;;17.80;75.10;;;;;;5073233;28;20020;-87
2021/07/07 06:38:39;;;;;;;4.25;2.33;;;17.80;74.80;;;;;;5058812;28;20491;-89
2021/07/07 06:41:05;;;;;;;5.13;2.90;;;17.90;74.70;;;;;;5063473;28;20017;-86
2021/07/07 06:43:30;;;;;;;4.90;2.50;;;17.80;74.70;;;;;;5067150;28;20490;-85
2021/07/07 06:45:56;;;;;;;3.28;1.90;;;17.90;74.80;;;;;;5062476;28;20084;-88
2021/07/07 06:48:21;;;;;;;6.30;2.83;;;17.90;74.70;;;;;;5072384;28;20067;-87
2021/07/07 06:50:47;;;;;;;4.07;2.22;;;17.90;74.60;;;;;;5070188;28;20056;-86
2021/07/07 06:53:14;;;;;;;7.35;3.00;;;18.00;74.60;;;;;;5070477;28;20020;-87
2021/07/07 06:55:40;;;;;;;7.78;3.00;;;17.90;74.80;;;;;;5070091;28;20028;-96
2021/07/07 06:58:12;;;;;;;6.93;3.20;;;17.90;74.80;;;;;;5787918;22;20435;-96
2021/07/07 07:00:39;;;;;;;4.38;2.53;;;18.10;74.80;;;;;;5074204;28;20512;-86
2021/07/07 07:03:05;;;;;;;4.35;2.03;;;18.20;74.60;;;;;;5060499;28;20036;-89
2021/07/07 07:05:31;;;;;;;7.55;2.95;;;18.30;74.30;;;;;;5067208;28;20021;-85
2021/07/07 07:07:56;;;;;;;4.53;2.53;;;18.40;74.00;;;;;;5047462;28;20661;-89
2021/07/07 07:10:22;;;;;;;2.95;2.00;;;18.50;74.30;;;;;;5045922;28;20021;-96
2021/07/07 07:12:48;;;;;;;3.00;2.00;;;18.70;73.30;;;;;;5046394;28;20115;-89
2021/07/07 07:15:15;;;;;;;4.90;2.13;;;18.90;73.00;;;;;;5050288;28;20032;-90
2021/07/07 07:17:42;;;;;;;3.53;1.92;;;19.10;72.60;;;;;;5050904;28;20025;-91
2021/07/07 07:20:14;;;;;;;6.75;1.60;;;19.20;72.00;;;;;;5051881;28;20029;-87
2021/07/07 07:22:40;;;;;;;7.88;3.20;;;19.40;71.70;;;;;;5048652;28;20025;-90
2021/07/07 07:25:10;;;;;;;8.60;3.10;;;19.50;71.10;;;;;;5049614;28;20037;-91
2021/07/07 07:27:36;;;;;;;4.45;2.42;;;19.50;70.70;;;;;;5055242;28;20436;-90
2021/07/07 07:30:06;;;;;;;5.45;2.40;;;19.70;70.60;;;;;;5057352;28;20055;-91
2021/07/07 07:32:32;;;;;;;5.15;2.80;;;20.10;70.30;;;;;;5049630;28;20097;-90
2021/07/07 07:34:58;;;;;;;4.63;2.58;;;20.30;69.50;;;;;;5042187;28;20029;-89
2021/07/07 07:37:38;;;;;;;6.47;3.13;;;20.40;69.00;;;;;;5050229;28;20028;-89
2021/07/07 07:40:10;;;;;;;4.57;2.08;;;20.60;68.40;;;;;;5049788;28;20847;-89
2021/07/07 07:42:36;;;;;;;6.10;2.80;;;20.90;68.10;;;;;;5052012;28;20013;-89
2021/07/07 07:45:03;;;;;;;4.82;1.90;;;21.00;66.80;;;;;;5051210;28;20021;-88
2021/07/07 07:47:28;;;;;;;5.63;2.00;;;21.30;66.70;;;;;;5050409;28;20527;-87
2021/07/07 07:49:54;;;;;;;3.63;1.70;;;21.60;65.90;;;;;;5057371;28;20052;-93
2021/07/07 07:52:20;;;;;;;4.88;1.50;;;21.60;65.30;;;;;;5058343;28;20364;-89
2021/07/07 07:54:47;;;;;;;3.38;1.60;;;21.80;65.30;;;;;;5053515;28;20383;-88
2021/07/07 07:57:13;;;;;;;3.35;1.48;;;21.90;64.80;;;;;;5058102;28;20025;-89
2021/07/07 07:59:38;;;;;;;4.30;1.80;;;22.00;64.70;;;;;;5055753;28;20037;-88
2021/07/07 08:02:05;;;;;;;5.88;2.38;;;22.00;63.90;;;;;;5055559;28;20044;-93
2021/07/07 08:04:31;;;;;;;4.57;1.67;;;22.10;63.40;;;;;;5056026;28;20022;-92
2021/07/07 08:06:56;;;;;;;4.57;1.92;;;22.10;63.20;;;;;;5060227;28;20013;-89
2021/07/07 08:09:22;;;;;;;3.20;1.60;;;22.10;63.30;;;;;;5058821;28;20119;-86
2021/07/07 08:11:50;;;;;;;3.97;2.30;;;22.10;63.00;;;;;;5059770;28;20045;-87
2021/07/07 08:14:15;;;;;;;4.65;2.10;;;22.10;63.00;;;;;;5058217;28;20051;-89
2021/07/07 08:16:41;;;;;;;4.30;1.90;;;22.10;62.60;;;;;;5052069;28;20061;-87
2021/07/07 08:19:07;;;;;;;4.43;1.80;;;22.20;62.40;;;;;;5053606;28;20037;-84
2021/07/07 08:21:33;;;;;;;4.20;1.95;;;22.30;62.40;;;;;;5050872;28;20027;-86
2021/07/07 08:24:02;;;;;;;4.70;1.55;;;22.30;62.00;;;;;;5052209;28;20124;-88
2021/07/07 08:26:28;;;;;;;5.50;2.20;;;22.40;62.30;;;;;;5057363;28;20487;-87
2021/07/07 08:28:57;;;;;;;3.92;1.50;;;22.50;61.20;;;;;;5056394;28;20036;-85
2021/07/07 08:31:23;;;;;;;4.03;1.70;;;22.50;61.10;;;;;;5056791;28;20100;-87
2021/07/07 08:33:48;;;;;;;3.25;1.58;;;22.60;60.60;;;;;;5054114;28;20182;-91
2021/07/07 08:36:19;;;;;;;4.65;1.80;;;22.60;59.50;;;;;;5054593;28;20021;-90
2021/07/07 08:38:44;;;;;;;3.72;1.77;;;22.60;59.60;;;;;;5061008;28;20028;-87
2021/07/07 08:41:11;;;;;;;2.05;1.30;;;22.80;59.50;;;;;;5055472;28;20021;-88
2021/07/07 08:43:37;;;;;;;3.03;1.38;;;22.90;59.80;;;;;;5056260;28;20029;-90
2021/07/07 08:46:03;;;;;;;4.03;1.55;;;23.10;59.50;;;;;;5057475;28;20581;-90
2021/07/07 08:48:28;;;;;;;3.38;1.50;;;23.20;59.20;;;;;;5077501;28;20072;-88
2021/07/07 08:50:59;;;;;;;2.45;1.40;;;23.40;59.20;;;;;;5058944;28;20025;-89
2021/07/07 08:53:25;;;;;;;4.00;1.90;;;23.50;58.70;;;;;;5059472;28;20031;-88
2021/07/07 08:55:52;;;;;;;6.85;2.35;;;23.60;57.90;;;;;;5065802;28;20670;-88
2021/07/07 08:58:18;;;;;;;3.88;1.60;;;23.60;57.50;;;;;;5060825;28;20075;-90
2021/07/07 09:00:44;;;;;;;5.18;1.80;;;23.70;57.20;;;;;;5054040;28;20032;-91
2021/07/07 09:03:21;;;;;;;3.30;1.27;;;23.70;55.30;;;;;;5060482;28;20073;-87
2021/07/07 09:05:51;;;;;;;5.03;1.50;;;23.50;55.60;;;;;;5067222;28;20033;-87
2021/07/07 09:08:26;;;;;;;4.80;1.42;;;23.50;55.40;;;;;;5057487;28;20051;-89
2021/07/07 09:10:52;;;;;;;5.10;1.75;;;23.60;55.30;;;;;;5051126;28;20025;-89
2021/07/07 09:13:18;;;;;;;5.95;1.75;;;23.60;54.50;;;;;;5050694;28;20021;-87
2021/07/07 09:15:44;;;;;;;2.03;1.20;;;23.40;54.30;;;;;;5051140;28;20071;-88
2021/07/07 09:18:22;;;;;;;2.28;1.10;;;23.30;55.40;;;;;;5046461;28;20533;-88
2021/07/07 09:20:49;;;;;;;4.78;1.60;;;23.30;55.40;;;;;;5052898;28;20044;-91
2021/07/07 09:23:23;;;;;;;3.60;1.45;;;23.20;55.20;;;;;;5048004;28;20029;-90
2021/07/07 09:25:56;;;;;;;2.97;1.27;;;23.20;54.80;;;;;;5054429;28;20024;-90
2021/07/07 09:28:25;;;;;;;3.20;1.42;;;23.20;55.10;;;;;;5074421;28;20012;-90
2021/07/07 09:30:52;;;;;;;3.40;1.25;;;23.20;54.70;;;;;;5052872;28;20500;-90
2021/07/07 09:33:19;;;;;;;4.38;1.25;;;23.20;54.70;;;;;;5053213;28;20025;-90
2021/07/07 09:35:46;;;;;;;3.00;1.52;;;23.50;54.90;;;;;;5054472;28;20484;-91
2021/07/07 09:38:12;;;;;;;4.50;1.50;;;23.70;54.50;;;;;;5054253;28;20024;-90
2021/07/07 09:40:42;;;;;;;4.25;1.50;;;23.80;53.60;;;;;;5054534;28;20060;-91
2021/07/07 09:43:10;;;;;;;4.15;1.20;;;24.00;53.70;;;;;;5053016;28;20021;-91
2021/07/07 09:45:45;;;;;;;5.10;1.77;;;24.20;53.60;;;;;;5054177;28;20025;-90
2021/07/07 09:48:15;;;;;;;6.15;1.70;;;24.30;52.70;;;;;;5068770;28;20027;-91
2021/07/07 09:50:43;;;;;;;5.93;1.65;;;24.20;52.10;;;;;;5074424;28;20036;-92
2021/07/07 09:53:11;;;;;;;3.25;1.38;;;24.10;52.10;;;;;;5074029;28;20094;-91
2021/07/07 09:55:36;;;;;;;2.75;1.30;;;24.00;52.30;;;;;;5073386;28;20093;-90
2021/07/07 09:58:02;;;;;;;5.38;1.75;;;23.90;52.90;;;;;;5073907;28;20013;-89
2021/07/07 10:00:29;;;;;;;3.65;1.35;;;23.90;52.50;;;;;;5073728;28;20556;-92
2021/07/07 10:02:55;;;;;;;3.47;1.38;;;23.80;52.50;;;;;;5072707;28;20027;-90
2021/07/07 10:05:22;;;;;;;3.90;1.60;;;23.80;52.20;;;;;;5072786;28;20104;-91
2021/07/07 10:07:49;;;;;;;3.65;1.40;;;23.70;51.60;;;;;;5072930;28;20482;-91
2021/07/07 10:10:16;;;;;;;4.18;1.50;;;23.70;52.20;;;;;;5073930;28;20028;-91
2021/07/07 10:12:44;;;;;;;5.03;1.25;;;23.80;51.60;;;;;;5073480;28;20775;-90
2021/07/07 10:15:14;;;;;;;2.60;1.08;;;23.90;51.90;;;;;;5073413;28;20221;-89
2021/07/07 10:17:41;;;;;;;3.55;1.50;;;24.10;51.90;;;;;;5073445;28;20024;-90
2021/07/07 10:20:13;;;;;;;4.75;1.80;;;23.90;51.20;;;;;;5075158;28;20036;-91
2021/07/07 10:22:39;;;;;;;3.03;1.45;;;23.80;51.20;;;;;;5075763;28;20040;-91
2021/07/07 10:25:13;;;;;;;3.08;1.10;;;23.70;51.40;;;;;;5075113;28;20027;-91
2021/07/07 10:27:39;;;;;;;6.40;1.77;;;23.80;52.10;;;;;;5073779;28;20024;-91
2021/07/07 10:30:06;;;;;;;4.70;1.40;;;24.00;51.60;;;;;;5072380;28;20391;-90
2021/07/07 10:32:32;;;;;;;4.18;1.27;;;24.10;51.10;;;;;;5075352;28;20107;-90
2021/07/07 10:35:10;;;;;;;5.50;1.42;;;24.30;51.40;;;;;;5074961;28;20696;-91
2021/07/07 10:37:38;;;;;;;3.35;1.35;;;24.30;51.00;;;;;;5073286;28;20035;-90
2021/07/07 10:40:28;;;;;;;5.18;1.50;;;24.40;51.10;;;;;;5072237;28;20051;-90
2021/07/07 10:42:55;;;;;;;3.20;1.42;;;24.30;50.20;;;;;;5072942;28;20154;-90
2021/07/07 10:45:41;;;;;;;3.30;1.25;;;24.20;50.80;;;;;;5073261;28;20028;-91
2021/07/07 10:48:30;;;;;;;1.45;0.60;;;24.10;51.10;;;;;;5073379;28;20025;-90
2021/07/07 10:51:20;;;;;;;4.80;1.75;;;24.20;51.80;;;;;;5072708;28;20510;-90
2021/07/07 10:53:45;;;;;;;3.00;1.20;;;24.10;51.30;;;;;;5072950;28;20028;-90
2021/07/07 10:56:11;;;;;;;5.35;2.10;;;24.00;51.40;;;;;;5073009;28;20020;-91
2021/07/07 10:58:39;;;;;;;3.25;1.30;;;24.00;51.20;;;;;;5072540;28;20064;-91
2021/07/07 11:01:35;;;;;;;1.92;1.00;;;24.10;51.60;;;;;;5074448;28;20506;-91
2021/07/07 11:04:03;;;;;;;2.85;1.20;;;24.30;51.90;;;;;;5072312;28;20040;-90
2021/07/07 11:06:38;;;;;;;2.75;1.30;;;24.30;51.70;;;;;;5067261;28;20072;-90
2021/07/07 11:09:13;;;;;;;2.53;1.20;;;24.50;51.50;;;;;;5054015;28;20033;-89
2021/07/07 11:11:41;;;;;;;4.72;1.33;;;24.50;51.00;;;;;;5048356;28;20020;-90
2021/07/07 11:14:17;;;;;;;1.88;0.90;;;24.50;51.10;;;;;;5049008;28;20024;-90
2021/07/07 11:17:00;;;;;;;2.80;1.20;;;24.50;51.30;;;;;;5048387;28;20017;-90
2021/07/07 11:19:47;;;;;;;3.42;1.08;;;24.30;50.80;;;;;;5048913;28;20097;-88
2021/07/07 11:22:15;;;;;;;2.05;1.10;;;24.20;51.20;;;;;;5047243;28;20017;-89
2021/07/07 11:24:45;;;;;;;3.70;1.00;;;24.10;51.60;;;;;;5051846;28;20079;-90
2021/07/07 11:27:12;;;;;;;0.85;0.75;;;24.10;52.00;;;;;;5050498;28;20029;-90
2021/07/07 11:29:38;;;;;;;4.10;1.10;;;24.10;52.30;;;;;;5060336;28;20024;-90
2021/07/07 11:32:27;;;;;;;4.07;1.30;;;24.30;52.40;;;;;;5071670;28;20028;-90
2021/07/07 11:34:56;;;;;;;1.65;0.98;;;24.30;52.00;;;;;;5050457;28;20013;-89
2021/07/07 11:37:26;;;;;;;4.10;1.20;;;24.40;52.10;;;;;;5059248;28;20039;-90
2021/07/07 11:40:10;;;;;;;6.22;1.27;;;24.50;52.10;;;;;;5071649;28;20035;-89
2021/07/07 11:43:10;;;;;;;3.20;1.40;;;24.50;51.70;;;;;;5069807;28;20021;-90
2021/07/07 11:45:42;;;;;;;2.97;1.27;;;24.50;51.30;;;;;;5058922;28;20040;-89
2021/07/07 11:48:18;;;;;;;2.13;0.90;;;24.50;51.30;;;;;;5068980;28;20479;-91
2021/07/07 11:51:06;;;;;;;3.03;1.00;;;24.50;51.30;;;;;;5069354;28;20024;-90
2021/07/07 11:53:33;;;;;;;2.83;0.98;;;24.60;51.30;;;;;;5068987;28;20142;-88
2021/07/07 11:56:08;;;;;;;2.42;0.80;;;24.80;50.70;;;;;;5067712;28;20204;-90
2021/07/07 11:58:47;;;;;;;4.05;1.38;;;24.80;50.30;;;;;;5068144;28;20031;-90
2021/07/07 12:01:17;;;;;;;2.40;0.90;;;24.90;49.70;;;;;;5042021;28;20029;-89
2021/07/07 12:03:54;;;;;;;3.90;1.38;;;24.90;50.10;;;;;;5063983;28;20037;-85
2021/07/07 12:06:46;;;;;;;1.70;0.90;;;25.00;50.10;;;;;;5062113;28;20037;-85
2021/07/07 12:09:18;;;;;;;2.37;1.23;;;25.20;50.20;;;;;;5065469;28;20564;-84
2021/07/07 12:12:05;;;;;;;4.25;1.65;;;25.30;49.40;;;;;;5044824;28;20120;-85
2021/07/07 12:14:33;;;;;;;4.30;1.33;;;25.10;48.60;;;;;;5066816;28;20020;-86
2021/07/07 12:16:59;;;;;;;4.15;1.20;;;25.20;48.70;;;;;;5062829;28;20047;-87
2021/07/07 12:19:27;;;;;;;2.38;1.13;;;25.20;48.40;;;;;;5050673;28;20052;-86
2021/07/07 12:21:53;;;;;;;2.28;1.10;;;25.30;48.30;;;;;;5059715;28;20086;-86
2021/07/07 12:24:27;;;;;;;2.88;1.08;;;25.40;48.00;;;;;;5069300;28;20476;-86
2021/07/07 12:27:00;;;;;;;2.75;1.20;;;25.60;47.60;;;;;;5048205;28;20360;-87
2021/07/07 12:29:31;;;;;;;1.85;1.00;;;25.90;46.80;;;;;;5073187;28;20479;-87
2021/07/07 12:32:19;;;;;;;0.73;0.70;;;26.00;46.50;;;;;;5058296;28;20025;-87
2021/07/07 12:34:51;;;;;;;1.77;0.95;;;26.20;46.60;;;;;;5071238;28;20046;-84
2021/07/07 12:37:17;;;;;;;;;;;26.30;45.70;;;;;;5047320;28;20068;-86
2021/07/07 12:39:49;;;;;;;1.10;0.90;;;26.30;46.10;;;;;;5060585;28;20379;-87
2021/07/07 12:42:30;;;;;;;1.63;1.00;;;26.40;45.30;;;;;;5054195;28;20029;-86
2021/07/07 12:45:15;;;;;;;2.25;1.10;;;26.30;44.70;;;;;;5047920;28;20009;-86
2021/07/07 12:47:43;;;;;;;1.25;0.80;;;26.20;43.70;;;;;;5058672;28;20074;-87
2021/07/07 12:50:17;;;;;;;2.15;1.20;;;26.20;44.40;;;;;;5073787;28;20021;-86
2021/07/07 12:52:45;;;;;;;1.55;1.10;;;26.20;43.70;;;;;;5055528;28;20445;-86
2021/07/07 12:55:18;;;;;;;2.90;1.23;;;26.00;44.00;;;;;;5073538;28;20028;-86
2021/07/07 12:58:01;;;;;;;4.25;1.20;;;25.80;44.10;;;;;;5071646;28;20024;-87